<?xml version="1.0" encoding="UTF-8" standalone="no" ?>
<gpx xmlns="http://www.topografix.com/GPX/1/1" xmlns:xsi="http://www.w3.org/2001/XMLSchema-instance" xsi:schemaLocation="http://www.topografix.com/GPX/1/1 http://www.topografix.com/GPX/1/1/gpx.xsd" version="1.1" creator="VisuGPX - https://www.visugpx.com">
  <metadata>
    <name>Refuge de Bastan - Chalet Hôtel d'Oredon</name>
  </metadata>
  <wpt lat="42.8535" lon="0.20982">
    <ele>2234</ele>
    <name><![CDATA[Départ, refuge du Bastan]]></name>
  </wpt>
  <wpt lat="42.84265" lon="0.2084">
    <ele>2100</ele>
    <name><![CDATA[Bifurcation]]></name>
  </wpt>
  <wpt lat="42.83975" lon="0.19767">
    <ele>1817</ele>
    <name><![CDATA[Cabane de Lude]]></name>
  </wpt>
  <wpt lat="42.83079" lon="0.19763">
    <ele>1814</ele>
    <name><![CDATA[à droite]]></name>
  </wpt>
  <wpt lat="42.82688" lon="0.18377">
    <ele>2242</ele>
    <name><![CDATA[Col d'Estoudou]]></name>
  </wpt>
  <wpt lat="42.83286" lon="0.18085">
    <ele>2433</ele>
    <name><![CDATA[Soum de Monpelat]]></name>
  </wpt>
  <wpt lat="42.82739" lon="0.18175">
    <ele>2233</ele>
    <name><![CDATA[à gauche]]></name>
  </wpt>
  <wpt lat="42.82582" lon="0.16966">
    <ele>1863</ele>
    <name><![CDATA[Arrivée]]></name>
  </wpt>
  <trk>
    <name><![CDATA[Refuge de Bastan - Chalet Hôtel d'Oredon]]></name>
    <trkseg>
      <trkpt lat="42.8535" lon="0.20982">
        <ele>2234</ele>
        <time>2019-08-11T12:36:28+02:00</time>
      </trkpt>
      <trkpt lat="42.85257" lon="0.21087">
        <ele>2227</ele>
        <time>2019-08-11T12:36:33+02:00</time>
      </trkpt>
      <trkpt lat="42.85118" lon="0.212">
        <ele>2226</ele>
        <time>2019-08-11T12:36:38+02:00</time>
      </trkpt>
      <trkpt lat="42.84989" lon="0.21256">
        <ele>2218</ele>
        <time>2019-08-11T12:36:43+02:00</time>
      </trkpt>
      <trkpt lat="42.84907" lon="0.21248">
        <ele>2204</ele>
        <time>2019-08-11T12:36:48+02:00</time>
      </trkpt>
      <trkpt lat="42.84784" lon="0.21342">
        <ele>2187</ele>
        <time>2019-08-11T12:36:53+02:00</time>
      </trkpt>
      <trkpt lat="42.84709" lon="0.21226">
        <ele>2157</ele>
        <time>2019-08-11T12:36:58+02:00</time>
      </trkpt>
      <trkpt lat="42.84724" lon="0.21145">
        <ele>2156</ele>
        <time>2019-08-11T12:37:03+02:00</time>
      </trkpt>
      <trkpt lat="42.84699" lon="0.20973">
        <ele>2138</ele>
        <time>2019-08-11T12:37:08+02:00</time>
      </trkpt>
      <trkpt lat="42.84561" lon="0.209">
        <ele>2102</ele>
        <time>2019-08-11T12:37:13+02:00</time>
      </trkpt>
      <trkpt lat="42.84558" lon="0.20788">
        <ele>2090</ele>
        <time>2019-08-11T12:37:18+02:00</time>
      </trkpt>
      <trkpt lat="42.84501" lon="0.20754">
        <ele>2080</ele>
        <time>2019-08-11T12:37:23+02:00</time>
      </trkpt>
      <trkpt lat="42.84394" lon="0.2087">
        <ele>2114</ele>
        <time>2019-08-11T12:37:28+02:00</time>
      </trkpt>
      <trkpt lat="42.84265" lon="0.2084">
        <ele>2100</ele>
        <time>2019-08-11T12:37:33+02:00</time>
      </trkpt>
      <trkpt lat="42.84165" lon="0.20667">
        <ele>2070</ele>
        <time>2019-08-11T12:37:38+02:00</time>
      </trkpt>
      <trkpt lat="42.84105" lon="0.20529">
        <ele>2041</ele>
        <time>2019-08-11T12:37:43+02:00</time>
      </trkpt>
      <trkpt lat="42.84051" lon="0.20436">
        <ele>2018</ele>
        <time>2019-08-11T12:37:48+02:00</time>
      </trkpt>
      <trkpt lat="42.83869" lon="0.20409">
        <ele>1995</ele>
        <time>2019-08-11T12:37:53+02:00</time>
      </trkpt>
      <trkpt lat="42.83642" lon="0.20415">
        <ele>1939</ele>
        <time>2019-08-11T12:37:58+02:00</time>
      </trkpt>
      <trkpt lat="42.8402" lon="0.20085">
        <ele>1895</ele>
        <time>2019-08-11T12:38:03+02:00</time>
      </trkpt>
      <trkpt lat="42.8406" lon="0.19982">
        <ele>1864</ele>
        <time>2019-08-11T12:38:08+02:00</time>
      </trkpt>
      <trkpt lat="42.83975" lon="0.19767">
        <ele>1817</ele>
        <time>2019-08-11T12:38:13+02:00</time>
      </trkpt>
      <trkpt lat="42.8402" lon="0.19621">
        <ele>1836</ele>
        <time>2019-08-11T12:38:18+02:00</time>
      </trkpt>
      <trkpt lat="42.83963" lon="0.19578">
        <ele>1837</ele>
        <time>2019-08-11T12:38:23+02:00</time>
      </trkpt>
      <trkpt lat="42.83815" lon="0.196">
        <ele>1822</ele>
        <time>2019-08-11T12:38:28+02:00</time>
      </trkpt>
      <trkpt lat="42.83626" lon="0.19643">
        <ele>1816</ele>
        <time>2019-08-11T12:38:33+02:00</time>
      </trkpt>
      <trkpt lat="42.83459" lon="0.196">
        <ele>1822</ele>
        <time>2019-08-11T12:38:38+02:00</time>
      </trkpt>
      <trkpt lat="42.83322" lon="0.1968">
        <ele>1813</ele>
        <time>2019-08-11T12:38:43+02:00</time>
      </trkpt>
      <trkpt lat="42.83189" lon="0.19694">
        <ele>1815</ele>
        <time>2019-08-11T12:38:48+02:00</time>
      </trkpt>
      <trkpt lat="42.83079" lon="0.19763">
        <ele>1814</ele>
        <time>2019-08-11T12:38:53+02:00</time>
      </trkpt>
      <trkpt lat="42.8316" lon="0.196">
        <ele>1845</ele>
        <time>2019-08-11T12:38:58+02:00</time>
      </trkpt>
      <trkpt lat="42.83034" lon="0.19419">
        <ele>1948</ele>
        <time>2019-08-11T12:39:03+02:00</time>
      </trkpt>
      <trkpt lat="42.82905" lon="0.19419">
        <ele>1979</ele>
        <time>2019-08-11T12:39:08+02:00</time>
      </trkpt>
      <trkpt lat="42.8283" lon="0.19355">
        <ele>2033</ele>
        <time>2019-08-11T12:39:13+02:00</time>
      </trkpt>
      <trkpt lat="42.8277" lon="0.19067">
        <ele>2115</ele>
        <time>2019-08-11T12:39:18+02:00</time>
      </trkpt>
      <trkpt lat="42.82824" lon="0.18673">
        <ele>2188</ele>
        <time>2019-08-11T12:39:23+02:00</time>
      </trkpt>
      <trkpt lat="42.82688" lon="0.18377">
        <ele>2242</ele>
        <time>2019-08-11T12:39:28+02:00</time>
      </trkpt>
      <trkpt lat="42.82824" lon="0.18295">
        <ele>2261</ele>
        <time>2019-08-11T12:39:33+02:00</time>
      </trkpt>
      <trkpt lat="42.82994" lon="0.18188">
        <ele>2307</ele>
        <time>2019-08-11T12:39:38+02:00</time>
      </trkpt>
      <trkpt lat="42.83286" lon="0.18085">
        <ele>2433</ele>
        <time>2019-08-11T12:39:43+02:00</time>
      </trkpt>
      <trkpt lat="42.83003" lon="0.18149">
        <ele>2310</ele>
        <time>2019-08-11T12:39:48+02:00</time>
      </trkpt>
      <trkpt lat="42.82691" lon="0.18364">
        <ele>2242</ele>
        <time>2019-08-11T12:39:53+02:00</time>
      </trkpt>
      <trkpt lat="42.82739" lon="0.18175">
        <ele>2233</ele>
        <time>2019-08-11T12:39:58+02:00</time>
      </trkpt>
      <trkpt lat="42.8272" lon="0.18141">
        <ele>2221</ele>
        <time>2019-08-11T12:40:03+02:00</time>
      </trkpt>
      <trkpt lat="42.82739" lon="0.17733">
        <ele>2098</ele>
        <time>2019-08-11T12:40:08+02:00</time>
      </trkpt>
      <trkpt lat="42.8268" lon="0.17663">
        <ele>2097</ele>
        <time>2019-08-11T12:40:13+02:00</time>
      </trkpt>
      <trkpt lat="42.82613" lon="0.1766">
        <ele>2097</ele>
        <time>2019-08-11T12:40:18+02:00</time>
      </trkpt>
      <trkpt lat="42.82595" lon="0.17517">
        <ele>2050</ele>
        <time>2019-08-11T12:40:23+02:00</time>
      </trkpt>
      <trkpt lat="42.82663" lon="0.17381">
        <ele>1987</ele>
        <time>2019-08-11T12:40:28+02:00</time>
      </trkpt>
      <trkpt lat="42.82676" lon="0.17235">
        <ele>1937</ele>
        <time>2019-08-11T12:40:33+02:00</time>
      </trkpt>
      <trkpt lat="42.82657" lon="0.17158">
        <ele>1915</ele>
        <time>2019-08-11T12:40:38+02:00</time>
      </trkpt>
      <trkpt lat="42.82689" lon="0.1703">
        <ele>1875</ele>
        <time>2019-08-11T12:40:43+02:00</time>
      </trkpt>
      <trkpt lat="42.82661" lon="0.16908">
        <ele>1854</ele>
        <time>2019-08-11T12:40:48+02:00</time>
      </trkpt>
      <trkpt lat="42.82603" lon="0.16884">
        <ele>1853</ele>
        <time>2019-08-11T12:40:53+02:00</time>
      </trkpt>
      <trkpt lat="42.82582" lon="0.16966">
        <ele>1863</ele>
        <time>2019-08-11T12:40:58+02:00</time>
      </trkpt>
    </trkseg>
  </trk>
</gpx>